Time;durP1;ratioP1;P1;durP2;ratioP2;P2;SDS_P1;SDS_P2;PMS_P1;PMS_P2;Temp;Humidity;BMP_temperature;BMP_pressure;BME280_temperature;BME280_humidity;BME280_pressure;Samples;Min_cycle;Max_cycle;Signal;HPM_P1;HPM_P2
2022/03/31 00:02:04;;;;;;;9.55;5.00;;;;;;;4.84;73.30;100039.44;5055490;28;20033;-72
2022/03/31 00:04:30;;;;;;;10.45;5.18;;;;;;;4.80;73.56;100047.91;5055254;28;20039;-72
2022/03/31 00:06:55;;;;;;;8.68;5.03;;;;;;;4.74;74.07;100038.91;5055406;28;20028;-72
2022/03/31 00:09:20;;;;;;;11.75;5.28;;;;;;;4.77;74.23;100048.28;5055594;28;20025;-72
2022/03/31 00:11:46;;;;;;;11.05;4.75;;;;;;;4.70;74.38;100042.88;5055236;28;20040;-72
2022/03/31 00:14:11;;;;;;;10.68;4.93;;;;;;;4.75;73.77;100051.09;5055275;28;20036;-72
2022/03/31 00:16:36;;;;;;;12.35;6.20;;;;;;;4.70;74.25;100045.53;5055261;28;20036;-72
2022/03/31 00:19:02;;;;;;;15.32;5.97;;;;;;;4.75;74.67;100052.91;5054201;28;20045;-71
2022/03/31 00:21:27;;;;;;;8.73;4.88;;;;;;;4.69;74.62;100030.69;5055447;28;20063;-71
2022/03/31 00:23:52;;;;;;;9.88;5.10;;;;;;;4.67;74.58;100032.69;5055497;28;20480;-71
2022/03/31 00:26:18;;;;;;;12.23;5.43;;;;;;;4.71;74.30;100035.78;5055037;28;20487;-72
2022/03/31 00:28:43;;;;;;;9.48;5.00;;;;;;;4.71;74.74;100035.78;5055116;28;20466;-71
2022/03/31 00:31:08;;;;;;;11.18;5.10;;;;;;;4.68;74.75;100031.66;5053829;28;20468;-71
2022/03/31 00:33:34;;;;;;;12.75;4.75;;;;;;;4.58;74.74;100024.00;5055082;28;20450;-71
2022/03/31 00:35:59;;;;;;;9.00;4.57;;;;;;;4.63;74.69;100033.19;5055432;28;20033;-72
2022/03/31 00:38:24;;;;;;;10.00;5.03;;;;;;;4.61;75.33;100039.50;5053411;28;20059;-72
2022/03/31 00:40:51;;;;;;;13.80;6.07;;;;;;;4.57;75.14;100035.56;5055232;28;20029;-72
2022/03/31 00:43:16;;;;;;;10.73;4.75;;;;;;;4.47;75.68;100023.59;5053410;28;20039;-72
2022/03/31 00:45:48;;;;;;;11.05;5.53;;;;;;;4.55;75.48;100039.38;5055184;28;20032;-72
2022/03/31 00:48:15;;;;;;;10.93;4.82;;;;;;;4.50;75.72;100029.34;5050161;28;20025;-72
2022/03/31 00:50:41;;;;;;;10.25;5.20;;;;;;;4.48;75.87;100035.78;5051590;28;20035;-72
2022/03/31 00:53:07;;;;;;;12.63;6.28;;;;;;;4.43;76.69;100033.69;5051642;28;20025;-72
2022/03/31 00:55:34;;;;;;;16.40;6.93;;;;;;;4.42;76.71;100029.41;5051991;28;20037;-71
2022/03/31 00:58:00;;;;;;;13.95;7.28;;;;;;;4.44;76.53;100026.59;5051817;28;20166;-72
2022/03/31 01:00:26;;;;;;;11.88;6.55;;;;;;;4.42;76.63;100028.59;5051865;28;20029;-72
2022/03/31 01:02:51;;;;;;;10.30;5.28;;;;;;;4.42;76.71;100028.59;5051779;28;20032;-72
2022/03/31 01:05:17;;;;;;;13.10;5.93;;;;;;;4.38;76.42;100030.78;5051828;28;20049;-72
2022/03/31 01:07:43;;;;;;;16.05;6.78;;;;;;;4.43;76.52;100032.84;5051615;28;20115;-71
2022/03/31 01:10:10;;;;;;;14.20;5.30;;;;;;;4.38;77.42;100036.06;5051670;28;20107;-71
2022/03/31 01:12:36;;;;;;;14.98;7.60;;;;;;;4.45;77.10;100034.31;5051514;28;20048;-71
2022/03/31 01:15:14;;;;;;;16.27;7.03;;;;;;;4.43;76.50;100015.22;5051437;28;20472;-71
2022/03/31 01:17:42;;;;;;;16.02;7.05;;;;;;;4.47;76.32;100021.78;5051541;28;20028;-71
2022/03/31 01:20:20;;;;;;;16.05;7.35;;;;;;;4.47;77.01;100023.59;5050195;28;20453;-72
2022/03/31 01:22:46;;;;;;;15.90;8.00;;;;;;;4.45;76.56;100029.03;5051333;28;20056;-72
2022/03/31 01:25:12;;;;;;;17.33;8.25;;;;;;;4.42;76.82;100026.75;5050784;28;20024;-72
2022/03/31 01:27:40;;;;;;;19.02;7.38;;;;;;;4.43;76.23;100017.00;5050953;28;20051;-71
2022/03/31 01:30:07;;;;;;;18.23;8.90;;;;;;;4.39;76.83;100022.66;5051255;28;20526;-71
2022/03/31 01:32:33;;;;;;;15.57;7.18;;;;;;;4.35;77.29;100017.94;5051211;28;20654;-71
2022/03/31 01:34:59;;;;;;;17.85;8.48;;;;;;;4.35;77.38;100016.09;5049681;28;20074;-71
2022/03/31 01:37:24;;;;;;;17.20;8.13;;;;;;;4.33;77.36;100023.38;5050939;28;20051;-72
2022/03/31 01:39:49;;;;;;;18.40;8.75;;;;;;;4.29;78.32;100019.44;5050901;28;20068;-72
2022/03/31 01:42:15;;;;;;;18.77;7.90;;;;;;;4.24;78.82;100013.03;5050927;28;20044;-72
2022/03/31 01:44:40;;;;;;;18.17;7.47;;;;;;;4.21;78.94;100014.22;5050860;28;20043;-71
2022/03/31 01:47:07;;;;;;;16.88;7.60;;;;;;;4.22;79.41;100026.44;5050887;28;20135;-72
2022/03/31 01:49:32;;;;;;;14.38;6.20;;;;;;;4.20;79.93;100014.41;5050891;28;20112;-72
2022/03/31 01:51:57;;;;;;;16.20;6.53;;;;;;;4.16;80.35;100006.81;5050895;28;20111;-72
2022/03/31 01:54:23;;;;;;;12.70;5.95;;;;;;;4.06;81.05;100013.31;5050769;28;20396;-72
2022/03/31 01:56:48;;;;;;;13.77;5.82;;;;;;;3.95;82.43;100011.91;5050679;28;20029;-72
2022/03/31 01:59:14;;;;;;;11.82;5.10;;;;;;;3.86;81.66;100011.16;5049466;28;20072;-72
2022/03/31 02:01:39;;;;;;;15.60;6.43;;;;;;;3.71;83.27;100010.22;5050517;28;20048;-72
2022/03/31 02:04:05;;;;;;;17.33;8.35;;;;;;;3.64;84.23;100006.63;5050612;28;20024;-72
2022/03/31 02:06:31;;;;;;;15.88;6.15;;;;;;;3.54;85.04;100012.13;5050579;28;20544;-72
2022/03/31 02:08:57;;;;;;;18.00;8.07;;;;;;;3.46;85.73;100002.44;5050342;28;20071;-72
2022/03/31 02:11:22;;;;;;;15.82;7.03;;;;;;;3.42;86.33;99998.50;5050489;28;20028;-72
2022/03/31 02:13:48;;;;;;;17.13;6.78;;;;;;;3.39;86.31;99995.41;5049073;28;20029;-72
2022/03/31 02:16:14;;;;;;;16.25;6.63;;;;;;;3.35;86.30;99991.44;5050099;28;20075;-72
2022/03/31 02:18:39;;;;;;;18.75;7.95;;;;;;;3.29;87.36;99990.31;5050306;28;20456;-72
2022/03/31 02:21:05;;;;;;;15.90;7.53;;;;;;;3.24;87.06;99987.38;5050308;28;20033;-72
2022/03/31 02:23:30;;;;;;;16.02;7.88;;;;;;;3.20;87.84;99988.72;5048761;28;20350;-72
2022/03/31 02:25:56;;;;;;;16.88;7.05;;;;;;;3.17;87.64;99984.63;5050025;28;20029;-72
2022/03/31 02:28:21;;;;;;;16.70;8.30;;;;;;;3.13;87.95;99975.41;5048795;28;20040;-72
2022/03/31 02:30:46;;;;;;;17.60;7.90;;;;;;;3.08;88.21;99972.44;5048773;28;20033;-72
2022/03/31 02:33:12;;;;;;;18.25;8.52;;;;;;;3.07;87.95;99974.25;5050189;28;20723;-72
2022/03/31 02:35:37;;;;;;;16.50;7.68;;;;;;;3.04;88.25;99971.16;5049847;28;20029;-71
2022/03/31 02:38:02;;;;;;;15.35;6.63;;;;;;;3.01;89.99;99967.06;5049717;28;20453;-72
2022/03/31 02:40:28;;;;;;;19.20;7.57;;;;;;;3.02;90.43;99970.50;5049942;28;20036;-72
2022/03/31 02:42:53;;;;;;;18.35;8.07;;;;;;;3.04;89.33;99971.16;5049807;28;20029;-72
2022/03/31 02:45:20;;;;;;;16.17;7.47;;;;;;;3.06;89.73;99971.78;5050013;28;20494;-72
2022/03/31 02:47:46;;;;;;;15.77;6.88;;;;;;;3.14;88.50;99970.94;5049808;28;20661;-72
2022/03/31 02:50:12;;;;;;;20.75;8.23;;;;;;;3.14;88.87;99971.75;5049802;28;20052;-72
2022/03/31 02:55:30;;;;;;;19.55;9.55;;;;;;;3.16;88.64;99969.78;5049805;28;20087;-72
2022/03/31 02:58:03;;;;;;;17.02;7.82;;;;;;;3.14;89.24;99963.84;5049227;28;20431;-72
2022/03/31 03:00:32;;;;;;;16.17;8.32;;;;;;;3.23;88.21;99970.75;5049676;28;20025;-72
2022/03/31 03:03:04;;;;;;;19.05;8.35;;;;;;;3.25;89.19;99973.22;5049629;28;20029;-72
2022/03/31 03:05:30;;;;;;;20.80;8.65;;;;;;;3.27;89.45;99973.84;5049561;28;20029;-72
2022/03/31 03:07:56;;;;;;;15.63;7.78;;;;;;;3.26;89.62;99970.41;5049835;28;20029;-71
2022/03/31 03:10:21;;;;;;;18.42;7.95;;;;;;;3.29;89.35;99969.25;5048950;28;20047;-71
2022/03/31 03:12:49;;;;;;;16.90;7.63;;;;;;;3.28;90.39;99962.34;5049253;28;20060;-71
2022/03/31 03:15:15;;;;;;;20.65;9.10;;;;;;;3.20;91.31;99946.56;5049082;28;20029;-71
2022/03/31 03:17:46;;;;;;;18.42;8.48;;;;;;;3.27;90.80;99955.41;5049339;28;20032;-71
2022/03/31 03:20:13;;;;;;;16.08;8.10;;;;;;;3.27;90.33;99947.50;5048057;28;20024;-72
2022/03/31 03:22:43;;;;;;;15.35;8.43;;;;;;;3.23;90.52;99947.03;5049279;28;20017;-72
2022/03/31 03:25:09;;;;;;;19.15;8.70;;;;;;;3.12;91.24;99931.63;5048758;28;20108;-72
2022/03/31 03:27:34;;;;;;;14.35;6.90;;;;;;;3.11;91.12;99931.78;5049130;28;20175;-72
2022/03/31 03:30:00;;;;;;;16.33;7.68;;;;;;;2.99;91.38;99921.63;5049077;28;20115;-71
2022/03/31 03:32:25;;;;;;;13.45;6.70;;;;;;;3.04;91.06;99924.56;5049132;28;20025;-71
2022/03/31 03:34:50;;;;;;;16.58;6.95;;;;;;;3.03;91.14;99925.53;5049105;28;20067;-72
2022/03/31 03:37:16;;;;;;;15.68;8.25;;;;;;;2.99;92.11;99924.25;5047140;28;20150;-72
2022/03/31 03:39:41;;;;;;;14.32;7.20;;;;;;;2.98;91.79;99919.94;5049135;28;20047;-72
2022/03/31 03:42:07;;;;;;;12.23;7.32;;;;;;;2.97;92.56;99923.59;5049083;28;20473;-72
2022/03/31 03:44:35;;;;;;;14.27;6.50;;;;;;;2.92;91.47;99923.28;5049081;28;20041;-72
2022/03/31 03:47:00;;;;;;;13.10;6.15;;;;;;;2.88;92.26;99931.69;5047825;28;20028;-72
2022/03/31 03:49:26;;;;;;;14.07;6.25;;;;;;;2.84;91.67;99925.94;5049032;28;20435;-71
2022/03/31 03:51:51;;;;;;;13.63;6.47;;;;;;;2.81;93.27;99923.66;5048845;28;20043;-72
2022/03/31 03:54:16;;;;;;;14.25;6.38;;;;;;;2.79;93.09;99925.63;5048805;28;20032;-72
2022/03/31 03:56:43;;;;;;;14.13;6.38;;;;;;;2.81;94.17;99932.38;5048990;28;20572;-72
2022/03/31 03:59:08;;;;;;;16.95;7.55;;;;;;;2.85;93.44;99935.47;5048970;28;20123;-72
2022/03/31 04:01:34;;;;;;;13.10;6.10;;;;;;;2.85;93.25;99935.47;5049056;28;20025;-72
2022/03/31 04:03:59;;;;;;;12.18;6.38;;;;;;;2.78;93.90;99918.72;5048965;28;20040;-72
2022/03/31 04:06:24;;;;;;;14.38;6.50;;;;;;;2.87;93.53;99936.13;5047586;28;20412;-72
2022/03/31 04:08:49;;;;;;;11.27;5.70;;;;;;;2.86;93.14;99934.50;5048810;28;20120;-72
2022/03/31 04:11:15;;;;;;;11.70;5.43;;;;;;;2.85;92.61;99938.09;5048730;28;20578;-72
2022/03/31 04:13:40;;;;;;;12.38;6.72;;;;;;;2.80;93.17;99930.72;5048796;28;20912;-72
2022/03/31 04:16:06;;;;;;;12.05;6.38;;;;;;;2.78;93.91;99937.16;5048770;28;20052;-72
2022/03/31 04:18:32;;;;;;;9.30;4.97;;;;;;;2.76;93.28;99939.13;5048701;28;20075;-72
2022/03/31 04:21:01;;;;;;;10.90;5.13;;;;;;;2.76;93.02;99939.94;5048756;28;20033;-71
2022/03/31 04:23:26;;;;;;;11.13;5.03;;;;;;;2.73;91.97;99940.28;5051244;28;20032;-72
2022/03/31 04:25:52;;;;;;;11.68;6.45;;;;;;;2.62;92.14;99944.09;5052330;28;20044;-72
2022/03/31 04:28:17;;;;;;;10.95;4.70;;;;;;;2.53;92.72;99942.44;5034706;28;20041;-72
2022/03/31 04:30:43;;;;;;;9.98;4.30;;;;;;;2.51;92.57;99947.06;5052335;28;20119;-72
2022/03/31 04:33:09;;;;;;;10.63;4.70;;;;;;;2.40;92.18;99932.44;5052129;28;20028;-72
2022/03/31 04:35:36;;;;;;;7.70;4.40;;;;;;;2.34;93.65;99955.97;5052225;28;20108;-72
2022/03/31 04:38:02;;;;;;;10.05;4.47;;;;;;;2.28;93.94;99948.72;5052051;28;20057;-72
2022/03/31 04:40:27;;;;;;;9.27;5.32;;;;;;;2.23;93.81;99951.03;5052517;28;20028;-72
2022/03/31 04:42:53;;;;;;;8.68;4.20;;;;;;;2.16;93.25;99945.63;5052165;28;20124;-72
2022/03/31 04:45:18;;;;;;;8.80;3.72;;;;;;;2.05;93.96;99951.22;5051910;28;20119;-72
2022/03/31 04:47:44;;;;;;;10.70;4.47;;;;;;;1.97;93.17;99939.69;5050964;28;20384;-72
2022/03/31 04:50:09;;;;;;;10.50;4.40;;;;;;;1.85;95.37;99948.88;5052058;28;20071;-72
2022/03/31 04:52:35;;;;;;;8.68;4.28;;;;;;;1.84;94.20;99941.16;5050688;28;20075;-72
2022/03/31 04:55:00;;;;;;;5.53;3.80;;;;;;;1.80;95.33;99958.22;5051873;28;20119;-73
2022/03/31 04:57:25;;;;;;;8.15;3.75;;;;;;;1.79;94.88;99948.72;5051735;28;20037;-72
2022/03/31 04:59:51;;;;;;;6.53;4.35;;;;;;;1.74;95.52;99949.19;5051724;28;20047;-72
2022/03/31 05:02:18;;;;;;;7.68;3.67;;;;;;;1.69;95.37;99949.66;5051785;28;20029;-72
2022/03/31 05:04:43;;;;;;;6.95;3.03;;;;;;;1.65;95.85;99944.88;5050609;28;20033;-72
2022/03/31 05:07:09;;;;;;;8.45;4.47;;;;;;;1.58;96.06;99949.16;5051580;28;20029;-72
2022/03/31 05:09:34;;;;;;;9.90;3.40;;;;;;;1.56;95.96;99954.56;5051827;28;20135;-72
2022/03/31 05:12:00;;;;;;;7.15;3.70;;;;;;;1.53;96.33;99949.63;5051486;28;20028;-72
2022/03/31 05:14:25;;;;;;;6.38;3.47;;;;;;;1.53;96.48;99957.53;5051207;28;20509;-72
2022/03/31 05:16:50;;;;;;;6.53;3.30;;;;;;;1.48;95.62;99950.09;5051419;28;20120;-72
2022/03/31 05:19:17;;;;;;;4.40;2.70;;;;;;;1.46;96.00;99953.88;5051420;28;20144;-72
2022/03/31 05:21:43;;;;;;;6.80;3.17;;;;;;;1.43;97.12;99941.06;5051398;28;20040;-71
2022/03/31 05:24:08;;;;;;;8.90;3.53;;;;;;;1.44;97.17;99947.97;5051492;28;20017;-72
2022/03/31 05:26:33;;;;;;;10.20;4.63;;;;;;;1.46;97.05;99949.44;5051024;28;20361;-72
2022/03/31 05:29:00;;;;;;;5.38;3.65;;;;;;;1.43;97.12;99952.38;5051757;28;20136;-72
2022/03/31 05:31:25;;;;;;;5.57;3.03;;;;;;;1.44;96.88;99950.59;5050034;28;20032;-72
2022/03/31 05:33:51;;;;;;;6.97;3.63;;;;;;;1.39;97.14;99950.22;5050932;28;20090;-72
2022/03/31 05:36:16;;;;;;;6.40;3.58;;;;;;;1.43;95.89;99944.50;5051141;28;20052;-72
2022/03/31 05:38:41;;;;;;;7.25;3.30;;;;;;;1.42;96.27;99950.75;5051118;28;20520;-72
2022/03/31 05:41:07;;;;;;;6.65;3.38;;;;;;;1.40;97.61;99957.97;5049790;28;20112;-72
2022/03/31 05:43:32;;;;;;;10.75;4.30;;;;;;;1.42;96.46;99956.00;5051015;28;20425;-72
2022/03/31 05:45:58;;;;;;;6.78;3.40;;;;;;;1.40;96.67;99950.09;5051065;28;20099;-72
2022/03/31 05:48:23;;;;;;;7.50;4.70;;;;;;;1.47;97.17;99966.88;5049538;28;20048;-72
2022/03/31 05:50:49;;;;;;;7.50;4.47;;;;;;;1.47;97.24;99964.25;5051454;28;20055;-72
2022/03/31 05:53:14;;;;;;;5.63;3.53;;;;;;;1.53;97.11;99962.78;5051046;28;20488;-71
2022/03/31 05:55:40;;;;;;;6.30;3.25;;;;;;;1.57;96.62;99961.44;5050417;28;20040;-72
2022/03/31 05:58:07;;;;;;;6.03;3.30;;;;;;;1.55;96.05;99971.31;5050512;28;20025;-72
2022/03/31 06:00:32;;;;;;;4.10;2.67;;;;;;;1.52;94.74;99961.16;5050511;28;20103;-72
2022/03/31 06:02:58;;;;;;;16.08;2.55;;;;;;;1.36;94.97;99966.31;5050385;28;20124;-72
2022/03/31 06:05:23;;;;;;;6.05;2.50;;;;;;;1.04;95.75;99967.84;5050642;28;20033;-72
2022/03/31 06:07:49;;;;;;;3.53;2.60;;;;;;;0.86;95.50;99968.75;5050681;28;20048;-73
2022/03/31 06:10:14;;;;;;;4.00;2.45;;;;;;;0.61;97.06;99967.75;5050385;28;20029;-73
2022/03/31 06:12:40;;;;;;;6.13;2.72;;;;;;;0.51;97.51;99972.28;5050607;28;20417;-73
2022/03/31 06:15:06;;;;;;;3.95;2.70;;;;;;;0.46;98.51;99966.66;5049265;28;20558;-73
2022/03/31 06:17:33;;;;;;;4.65;2.90;;;;;;;0.37;98.38;99965.78;5049440;28;20033;-74
2022/03/31 06:19:59;;;;;;;4.72;2.85;;;;;;;0.28;97.45;99971.94;5048934;28;20116;-73
2022/03/31 06:22:24;;;;;;;5.80;2.53;;;;;;;0.06;97.85;99954.06;5050187;28;20128;-74
2022/03/31 06:24:50;;;;;;;6.32;3.55;;;;;;;-0.08;98.15;99948.38;5049553;28;20028;-73
2022/03/31 06:27:16;;;;;;;4.72;2.88;;;;;;;-0.09;99.12;99970.31;5049814;28;20033;-73
2022/03/31 06:29:45;;;;;;;4.95;2.92;;;;;;;-0.11;100.00;99971.44;5050050;28;20036;-73
2022/03/31 06:32:12;;;;;;;5.22;2.85;;;;;;;-0.11;100.00;99964.38;5049945;28;20024;-73
2022/03/31 06:34:38;;;;;;;5.60;3.00;;;;;;;-0.13;100.00;99963.72;5050131;28;20043;-73
2022/03/31 06:37:04;;;;;;;4.18;2.30;;;;;;;-0.10;100.00;99960.00;5050168;28;20475;-72
2022/03/31 06:39:29;;;;;;;4.53;2.78;;;;;;;-0.13;100.00;99962.88;5050407;28;20028;-72
2022/03/31 06:41:55;;;;;;;5.22;2.70;;;;;;;-0.19;100.00;99964.31;5045064;28;20361;-72
2022/03/31 06:44:21;;;;;;;5.78;2.60;;;;;;;-0.19;100.00;99976.59;5058941;28;20071;-70
2022/03/31 06:46:47;;;;;;;4.68;2.50;;;;;;;-0.19;98.66;99971.34;5044970;28;20429;-70
2022/03/31 06:49:13;;;;;;;5.22;2.70;;;;;;;-0.27;99.01;99972.09;5045364;28;20032;-71
2022/03/31 06:51:38;;;;;;;4.53;2.28;;;;;;;-0.29;99.41;99971.41;5043936;28;20459;-72
2022/03/31 06:54:04;;;;;;;6.03;2.75;;;;;;;-0.31;99.63;99966.34;5044303;28;20492;-72
2022/03/31 06:56:31;;;;;;;5.82;2.55;;;;;;;-0.30;99.97;99967.16;5044303;28;20043;-71
2022/03/31 06:58:58;;;;;;;4.72;2.70;;;;;;;-0.21;100.00;99971.50;5044879;28;20083;-71
2022/03/31 07:01:24;;;;;;;8.25;3.20;;;;;;;-0.15;100.00;99977.97;5045202;28;20151;-71
2022/03/31 07:03:51;;;;;;;6.00;2.78;;;;;;;-0.06;100.00;99987.53;5044521;28;20762;-71
2022/03/31 07:06:17;;;;;;;4.75;2.78;;;;;;;0.03;100.00;99980.56;5044045;28;20029;-71
2022/03/31 07:08:42;;;;;;;7.63;4.30;;;;;;;0.05;100.00;99968.94;5044758;28;20032;-71
2022/03/31 07:11:09;;;;;;;6.93;3.05;;;;;;;0.14;100.00;99973.31;5043706;28;20025;-71
2022/03/31 07:13:35;;;;;;;5.03;2.85;;;;;;;0.15;100.00;99961.84;5041745;28;20035;-73
2022/03/31 07:16:01;;;;;;;5.30;3.42;;;;;;;0.16;100.00;99960.88;5042771;28;20127;-73
2022/03/31 07:18:26;;;;;;;5.97;3.63;;;;;;;0.28;100.00;99969.31;5044353;28;20528;-71
2022/03/31 07:20:51;;;;;;;5.47;3.10;;;;;;;0.35;100.00;99972.97;5076585;28;20028;-71
2022/03/31 07:23:23;;;;;;;6.78;3.45;;;;;;;0.40;100.00;99968.09;5044899;28;20037;-74
2022/03/31 07:25:50;;;;;;;5.88;3.38;;;;;;;0.43;100.00;99970.41;5045011;28;20143;-71
2022/03/31 07:28:15;;;;;;;9.10;4.72;;;;;;;0.43;100.00;99967.78;5048008;28;20033;-72
2022/03/31 07:30:41;;;;;;;5.10;2.92;;;;;;;0.53;100.00;99967.72;5049093;28;20044;-71
2022/03/31 07:33:08;;;;;;;6.78;3.47;;;;;;;0.50;100.00;99960.16;5049300;28;20218;-71
2022/03/31 07:35:37;;;;;;;5.82;3.22;;;;;;;0.55;100.00;99965.75;5049300;28;20117;-71
2022/03/31 07:38:03;;;;;;;4.30;2.78;;;;;;;0.58;100.00;99969.88;5048736;28;20044;-72
2022/03/31 07:40:29;;;;;;;5.55;3.10;;;;;;;0.62;100.00;99965.94;5049135;28;20061;-72
2022/03/31 07:42:55;;;;;;;6.40;3.55;;;;;;;0.62;100.00;99964.16;5049276;28;20441;-72
2022/03/31 07:45:22;;;;;;;4.55;2.80;;;;;;;0.63;100.00;99963.19;5049176;28;20029;-72
2022/03/31 07:47:48;;;;;;;8.35;4.30;;;;;;;0.64;100.00;99970.06;5048834;28;20029;-72
2022/03/31 07:50:16;;;;;;;4.63;2.83;;;;;;;0.62;100.00;99965.94;5049052;28;20032;-72
2022/03/31 07:52:43;;;;;;;6.20;3.42;;;;;;;0.59;100.00;99963.66;5048742;28;20036;-72
2022/03/31 07:55:13;;;;;;;6.18;3.08;;;;;;;0.61;100.00;99959.06;5048610;28;20028;-70
2022/03/31 07:57:39;;;;;;;5.80;3.58;;;;;;;0.65;100.00;99963.00;5046010;28;20024;-72
2022/03/31 08:00:07;;;;;;;5.65;3.17;;;;;;;0.69;100.00;99967.00;5052918;28;20060;-72
2022/03/31 08:02:32;;;;;;;5.90;3.25;;;;;;;0.71;100.00;99964.19;5085131;28;20037;-72
2022/03/31 08:04:58;;;;;;;6.13;3.45;;;;;;;0.77;100.00;99964.41;5052764;28;20032;-72
2022/03/31 08:07:23;;;;;;;6.03;3.35;;;;;;;0.82;100.00;99964.78;5052811;28;20037;-72
2022/03/31 08:09:48;;;;;;;5.30;3.15;;;;;;;0.84;100.00;99959.38;5052999;28;20036;-72
2022/03/31 08:12:14;;;;;;;5.68;3.10;;;;;;;0.83;100.00;99963.78;5052606;28;20140;-72
2022/03/31 08:14:39;;;;;;;7.15;3.55;;;;;;;0.88;100.00;99968.56;5052338;28;20033;-72
2022/03/31 08:17:05;;;;;;;6.63;3.47;;;;;;;0.96;100.00;99962.53;5052705;28;20112;-72
2022/03/31 08:19:32;;;;;;;7.03;3.90;;;;;;;0.99;100.00;99951.72;5084969;28;20048;-72
2022/03/31 08:22:01;;;;;;;8.60;3.90;;;;;;;1.11;100.00;99957.53;5052600;28;20021;-72
2022/03/31 08:24:26;;;;;;;5.38;3.88;;;;;;;1.10;100.00;99948.81;5052740;28;20020;-71
2022/03/31 08:26:52;;;;;;;6.43;3.70;;;;;;;1.26;100.00;99956.78;5052383;28;20913;-72
2022/03/31 08:29:18;;;;;;;6.72;3.28;;;;;;;1.28;100.00;99959.22;5052757;28;20112;-74
2022/03/31 08:31:43;;;;;;;8.38;3.80;;;;;;;1.30;100.00;99967.78;5053235;28;20106;-73
2022/03/31 08:34:09;;;;;;;5.15;3.20;;;;;;;1.28;100.00;99961.84;5053955;28;20032;-73
2022/03/31 08:36:36;;;;;;;4.57;3.17;;;;;;;1.31;100.00;99970.25;5052926;28;20037;-73
2022/03/31 08:39:04;;;;;;;5.47;3.60;;;;;;;1.35;100.00;99969.94;5053038;28;20053;-73
2022/03/31 08:41:29;;;;;;;5.78;3.35;;;;;;;1.35;100.00;99969.94;5053387;28;20079;-73
2022/03/31 08:43:56;;;;;;;5.82;3.50;;;;;;;1.35;100.00;99962.06;5053729;28;20427;-73
2022/03/31 08:46:23;;;;;;;4.00;3.10;;;;;;;1.38;100.00;99967.00;5053249;28;20087;-73
2022/03/31 08:48:49;;;;;;;4.35;2.90;;;;;;;1.37;100.00;99957.47;5053315;28;20120;-73
2022/03/31 08:51:15;;;;;;;5.28;3.40;;;;;;;1.42;100.00;99949.94;5053217;28;20112;-73
2022/03/31 08:53:41;;;;;;;4.32;2.78;;;;;;;1.42;100.00;99952.56;5053073;28;20060;-73
2022/03/31 08:56:09;;;;;;;4.43;2.78;;;;;;;1.42;100.00;99952.56;5053265;28;20111;-73
2022/03/31 08:58:35;;;;;;;4.95;3.53;;;;;;;1.49;100.00;99958.81;5052760;28;20045;-73
2022/03/31 09:01:00;;;;;;;4.85;2.65;;;;;;;1.52;100.00;99958.50;5052636;28;20033;-73
2022/03/31 09:03:33;;;;;;;4.90;2.95;;;;;;;1.48;100.00;99958.00;5052785;28;20043;-73
2022/03/31 09:05:59;;;;;;;3.80;2.60;;;;;;;1.44;100.00;99959.31;5052474;28;20388;-73
2022/03/31 09:08:24;;;;;;;3.08;2.30;;;;;;;1.48;100.00;99965.88;5051911;28;20025;-73
2022/03/31 09:10:53;;;;;;;4.75;2.88;;;;;;;1.52;100.00;99961.16;5052586;28;20870;-73
2022/03/31 09:13:37;;;;;;;4.32;2.45;;;;;;;1.61;100.00;99961.97;5052491;28;20021;-73
2022/03/31 09:16:06;;;;;;;4.10;3.00;;;;;;;1.61;100.00;99968.06;5052262;28;20021;-73
2022/03/31 09:18:34;;;;;;;3.97;3.30;;;;;;;1.67;100.00;99966.59;5052206;28;20025;-73
2022/03/31 09:21:02;;;;;;;5.07;2.97;;;;;;;1.75;100.00;99970.03;5052722;28;20103;-73
2022/03/31 09:23:32;;;;;;;5.40;2.80;;;;;;;1.79;100.00;99969.75;5052253;28;20444;-73
2022/03/31 09:26:12;;;;;;;5.95;3.30;;;;;;;1.83;100.00;99966.59;5052023;28;20024;-73
2022/03/31 09:28:39;;;;;;;4.07;2.67;;;;;;;1.90;100.00;99972.88;5041980;28;20037;-73
2022/03/31 09:31:08;;;;;;;4.93;3.03;;;;;;;1.88;100.00;99971.38;5052264;28;20965;-73
2022/03/31 09:33:34;;;;;;;4.60;2.83;;;;;;;1.90;100.00;99977.31;5051865;28;20059;-73
2022/03/31 09:36:13;;;;;;;5.05;3.40;;;;;;;1.95;100.00;99972.38;5049608;28;20968;-71
2022/03/31 09:38:39;;;;;;;5.57;3.33;;;;;;;1.96;100.00;99976.66;5045898;28;20053;-70
2022/03/31 09:41:20;;;;;;;4.70;3.15;;;;;;;1.98;100.00;99978.13;5045386;28;20701;-73
2022/03/31 09:43:47;;;;;;;6.07;2.83;;;;;;;1.93;100.00;99972.53;5045302;28;20025;-71
2022/03/31 09:46:18;;;;;;;5.28;3.15;;;;;;;1.96;100.00;99974.03;5046398;28;20083;-73
2022/03/31 09:48:44;;;;;;;7.75;4.00;;;;;;;2.04;100.00;99973.22;5044917;28;20116;-73
2022/03/31 09:51:09;;;;;;;5.97;3.80;;;;;;;2.07;100.00;99960.56;5046976;28;20151;-71
2022/03/31 09:53:35;;;;;;;4.70;3.40;;;;;;;2.09;100.00;99963.84;5045965;28;20036;-74
2022/03/31 09:56:01;;;;;;;5.72;3.42;;;;;;;2.11;100.00;99964.50;5043482;28;20029;-72
2022/03/31 09:58:27;;;;;;;4.15;2.80;;;;;;;2.17;100.00;99963.88;5044133;28;20200;-74
2022/03/31 10:00:53;;;;;;;5.40;3.10;;;;;;;2.21;100.00;99963.53;5043471;28;20032;-73
2022/03/31 10:03:20;;;;;;;4.30;2.88;;;;;;;2.09;100.00;99955.94;5043986;28;20025;-74
2022/03/31 10:05:47;;;;;;;3.85;2.92;;;;;;;2.17;100.00;99965.66;5043178;28;20021;-73
2022/03/31 10:08:13;;;;;;;7.10;3.75;;;;;;;2.29;100.00;99960.91;5044320;28;20040;-72
2022/03/31 10:10:39;;;;;;;6.53;3.80;;;;;;;2.30;100.00;99960.72;5046177;28;20465;-73
2022/03/31 10:13:15;;;;;;;7.60;4.20;;;;;;;2.32;100.00;99950.88;5043674;28;20017;-72
2022/03/31 10:15:42;;;;;;;5.57;3.50;;;;;;;2.41;100.00;99960.41;5044570;28;20387;-72
2022/03/31 10:18:08;;;;;;;7.50;4.40;;;;;;;2.40;100.00;99963.19;5043355;28;20029;-72
2022/03/31 10:20:33;;;;;;;6.65;3.70;;;;;;;2.47;100.00;99958.09;5043547;28;20082;-74
2022/03/31 10:25:47;;;;;;;6.05;3.63;;;;;;;2.52;100.00;99956.63;5045133;28;20379;-72
2022/03/31 10:28:18;;;;;;;5.40;3.95;;;;;;;2.52;100.00;99966.31;5043681;28;20043;-74
2022/03/31 10:30:57;;;;;;;5.93;3.67;;;;;;;2.54;100.00;99954.66;5045698;28;20036;-74
2022/03/31 10:33:37;;;;;;;5.75;3.58;;;;;;;2.59;100.00;99959.38;5044319;28;20276;-73
2022/03/31 10:36:02;;;;;;;6.40;3.97;;;;;;;2.60;100.00;99948.69;5045202;28;20396;-72
2022/03/31 10:38:29;;;;;;;5.75;3.63;;;;;;;2.63;100.00;99953.63;5043704;28;20048;-72
2022/03/31 10:41:02;;;;;;;6.65;4.10;;;;;;;2.61;100.00;99957.41;5045654;28;20380;-73
2022/03/31 10:43:30;;;;;;;6.82;3.92;;;;;;;2.54;100.00;99946.75;5045015;28;20040;-71
2022/03/31 10:45:57;;;;;;;5.68;3.45;;;;;;;2.53;100.00;99958.25;5044536;28;20029;-72
2022/03/31 10:48:25;;;;;;;7.80;3.45;;;;;;;2.49;100.00;99951.69;5044491;28;20058;-72
2022/03/31 10:51:06;;;;;;;7.70;4.38;;;;;;;2.34;100.00;99935.75;5044397;28;20511;-71
2022/03/31 10:53:35;;;;;;;8.77;4.20;;;;;;;2.40;100.00;99960.56;5044920;28;20029;-71
2022/03/31 10:56:02;;;;;;;6.60;3.65;;;;;;;2.33;100.00;99951.69;5045312;28;20400;-70
2022/03/31 10:58:29;;;;;;;6.07;3.45;;;;;;;2.28;100.00;99946.94;5044803;28;20709;-71
2022/03/31 11:00:57;;;;;;;6.05;3.63;;;;;;;2.35;100.00;99949.72;5044830;28;20025;-73
2022/03/31 11:03:23;;;;;;;5.90;3.60;;;;;;;2.39;100.00;99946.59;5049693;28;20044;-72
2022/03/31 11:05:49;;;;;;;5.85;4.00;;;;;;;2.45;100.00;99945.09;5049500;28;20071;-73
2022/03/31 11:08:17;;;;;;;4.63;3.30;;;;;;;2.49;100.00;99946.44;5049538;28;20029;-72
2022/03/31 11:10:52;;;;;;;7.60;4.50;;;;;;;2.54;100.00;99957.28;5049581;28;20029;-72
2022/03/31 11:13:20;;;;;;;6.35;4.30;;;;;;;2.57;100.00;99958.75;5049417;28;20086;-72
2022/03/31 11:15:54;;;;;;;3.95;3.05;;;;;;;2.58;100.00;99953.31;5049139;28;20660;-72
2022/03/31 11:18:21;;;;;;;7.13;4.18;;;;;;;2.55;100.00;99937.84;5049137;28;20037;-72
2022/03/31 11:20:58;;;;;;;6.75;4.40;;;;;;;2.66;100.00;99938.50;5049082;28;20054;-71
2022/03/31 11:23:25;;;;;;;4.32;3.33;;;;;;;2.73;100.00;99942.91;5049275;28;20033;-72
2022/03/31 11:25:50;;;;;;;6.93;4.32;;;;;;;2.83;100.00;99940.09;5049155;28;20032;-72
2022/03/31 11:28:17;;;;;;;8.38;4.30;;;;;;;2.85;99.52;99940.75;5049064;28;20107;-72
2022/03/31 11:30:43;;;;;;;5.82;3.83;;;;;;;2.79;99.35;99929.06;5048843;28;20112;-72
2022/03/31 11:33:10;;;;;;;7.03;3.88;;;;;;;2.75;99.39;99930.41;5047848;28;20036;-72
2022/03/31 11:35:36;;;;;;;5.15;3.42;;;;;;;2.77;98.67;99924.97;5048971;28;20833;-71
2022/03/31 11:38:05;;;;;;;6.80;3.58;;;;;;;2.71;99.31;99934.38;5048988;28;20124;-72